Time;durP1;ratioP1;P1;durP2;ratioP2;P2;SDS_P1;SDS_P2;PMS_P1;PMS_P2;Temp;Humidity;BMP_temperature;BMP_pressure;BME280_temperature;BME280_humidity;BME280_pressure;Samples;Min_cycle;Max_cycle;Signal;HPM_P1;HPM_P2
2021/12/16 05:00:30;;;;;;;24.48;15.05;;;5.30;99.90;;;;;;5988789;22;91012;-81
2021/12/16 05:02:56;;;;;;;23.10;14.45;;;5.30;99.90;;;;;;4959875;28;89128;-81
2021/12/16 05:05:22;;;;;;;27.73;15.63;;;5.30;99.90;;;;;;4959446;28;89205;-81
2021/12/16 05:07:47;;;;;;;23.50;14.43;;;5.30;99.90;;;;;;4960369;28;91902;-81
2021/12/16 05:10:18;;;;;;;26.75;16.02;;;5.30;99.90;;;;;;4960195;28;91340;-81
2021/12/16 05:12:55;;;;;;;23.63;15.02;;;5.30;99.90;;;;;;4960493;28;89391;-81
2021/12/16 05:15:29;;;;;;;24.67;13.73;;;5.20;99.90;;;;;;4965309;28;89032;-82
2021/12/16 05:17:56;;;;;;;24.05;13.75;;;5.30;99.90;;;;;;4964039;28;91508;-82
2021/12/16 05:20:26;;;;;;;24.83;13.85;;;5.30;99.90;;;;;;4964919;28;90836;-82
2021/12/16 05:26:00;;;;;;;21.27;13.13;;;5.20;99.90;;;;;;4969492;28;89306;-82
2021/12/16 05:28:25;;;;;;;21.25;12.68;;;5.20;99.90;;;;;;4968762;28;90820;-82
2021/12/16 05:30:52;;;;;;;19.95;12.15;;;5.20;99.90;;;;;;4970855;28;89342;-83
2021/12/16 05:33:18;;;;;;;20.42;12.80;;;5.20;99.90;;;;;;4968776;28;89348;-82
2021/12/16 05:35:44;;;;;;;20.08;11.82;;;5.20;99.90;;;;;;4971587;28;88751;-82
2021/12/16 05:38:10;;;;;;;22.45;13.02;;;5.20;99.90;;;;;;4972271;28;89809;-82
2021/12/16 05:40:36;;;;;;;21.35;12.45;;;5.20;99.90;;;;;;4970356;28;92513;-82
2021/12/16 05:43:06;;;;;;;22.83;12.85;;;5.20;99.90;;;;;;4971012;28;88971;-82
2021/12/16 05:45:32;;;;;;;21.13;12.88;;;5.20;99.90;;;;;;4971570;28;88956;-83
2021/12/16 05:48:00;;;;;;;19.17;11.52;;;5.20;99.90;;;;;;4972010;28;92974;-82
2021/12/16 05:50:28;;;;;;;19.63;12.07;;;5.20;99.90;;;;;;4972448;28;91241;-83
2021/12/16 05:52:54;;;;;;;20.88;11.98;;;5.20;99.90;;;;;;4971709;28;89057;-82
2021/12/16 05:55:21;;;;;;;20.33;12.30;;;5.20;99.90;;;;;;4971223;28;88814;-82
2021/12/16 05:57:47;;;;;;;20.45;11.80;;;5.20;99.90;;;;;;4971032;28;92049;-82
2021/12/16 06:00:20;;;;;;;18.77;11.57;;;5.20;99.90;;;;;;4971795;28;91087;-82
2021/12/16 06:02:46;;;;;;;19.98;11.63;;;5.20;99.90;;;;;;4971652;28;89041;-82
2021/12/16 06:05:12;;;;;;;20.13;12.52;;;5.20;99.90;;;;;;4974497;28;89027;-82
2021/12/16 06:07:38;;;;;;;19.50;11.98;;;5.20;99.90;;;;;;4974939;28;89182;-82
2021/12/16 06:10:06;;;;;;;19.65;12.40;;;5.20;99.90;;;;;;4973326;28;90622;-82
2021/12/16 06:12:32;;;;;;;20.77;12.00;;;5.20;99.90;;;;;;4975800;28;89439;-82
2021/12/16 06:15:20;;;;;;;21.27;12.50;;;5.20;99.90;;;;;;4975365;28;88894;-83
2021/12/16 06:28:33;;;;;;;20.92;11.98;;;5.20;99.90;;;;;;4976001;28;88832;-82
2021/12/16 06:30:59;;;;;;;18.65;11.65;;;5.20;99.90;;;;;;4971758;28;92545;-83
2021/12/16 06:33:25;;;;;;;22.70;12.18;;;5.20;99.90;;;;;;4972297;28;89002;-83
2021/12/16 06:35:53;;;;;;;20.90;12.63;;;5.20;99.90;;;;;;4971735;28;89328;-82
2021/12/16 06:38:20;;;;;;;19.75;11.85;;;5.20;99.90;;;;;;4970932;28;91675;-82
2021/12/16 06:40:46;;;;;;;22.45;12.18;;;5.20;99.90;;;;;;4971287;28;90980;-83
2021/12/16 06:43:14;;;;;;;19.35;11.85;;;5.20;99.90;;;;;;4971970;28;89002;-83
2021/12/16 06:45:41;;;;;;;19.40;11.73;;;5.30;99.90;;;;;;4973320;28;88910;-83
2021/12/16 06:48:15;;;;;;;24.52;13.20;;;5.30;99.90;;;;;;4972751;28;91644;-83
2021/12/16 06:50:50;;;;;;;17.45;11.30;;;5.20;99.90;;;;;;4973263;28;88995;-83
2021/12/16 06:53:25;;;;;;;20.67;12.68;;;5.20;99.90;;;;;;4973298;28;88810;-82
2021/12/16 07:02:04;;;;;;;19.15;11.60;;;5.30;99.90;;;;;;4967466;28;88666;-79
2021/12/16 07:03:54;;;;;;;19.83;12.30;;;5.30;99.90;;;;;;4954680;28;89061;-80
2021/12/16 07:06:28;;;;;;;21.30;12.82;;;5.30;99.90;;;;;;4962386;28;89152;-79
2021/12/16 07:08:56;;;;;;;20.38;12.32;;;5.30;99.90;;;;;;4951239;28;91982;-80
2021/12/16 07:11:23;;;;;;;22.88;13.38;;;5.30;99.90;;;;;;4947629;28;91305;-79
2021/12/16 07:13:57;;;;;;;22.33;13.38;;;5.30;99.90;;;;;;4950097;28;88904;-79
2021/12/16 07:16:25;;;;;;;22.63;13.02;;;5.30;99.90;;;;;;4948297;28;88963;-80
2021/12/16 07:18:51;;;;;;;21.63;13.25;;;5.30;99.90;;;;;;4949138;28;91947;-79
2021/12/16 07:21:16;;;;;;;20.83;13.77;;;5.30;99.90;;;;;;4948092;28;91093;-80
2021/12/16 07:23:42;;;;;;;21.75;12.90;;;5.30;99.90;;;;;;4950013;28;88981;-80
2021/12/16 07:26:07;;;;;;;24.63;13.13;;;5.30;99.90;;;;;;4949842;28;89119;-79
2021/12/16 07:28:33;;;;;;;21.80;13.55;;;5.30;99.90;;;;;;4949043;28;91914;-80
2021/12/16 07:30:59;;;;;;;22.75;13.80;;;5.30;99.90;;;;;;4951091;28;89438;-80
2021/12/16 07:33:25;;;;;;;24.08;13.77;;;5.30;99.90;;;;;;4949383;28;89007;-79
2021/12/16 07:35:51;;;;;;;23.90;14.30;;;5.30;99.90;;;;;;4950851;28;88885;-80
2021/12/16 07:38:17;;;;;;;21.10;12.52;;;5.30;99.90;;;;;;4949085;28;90250;-78
2021/12/16 07:40:45;;;;;;;24.88;13.98;;;5.30;99.90;;;;;;4946214;28;89573;-80
2021/12/16 07:43:23;;;;;;;22.38;13.85;;;5.30;99.90;;;;;;4951068;28;88809;-80
2021/12/16 07:45:51;;;;;;;26.13;14.82;;;5.40;99.90;;;;;;4952016;28;88894;-80
2021/12/16 07:48:19;;;;;;;25.80;14.82;;;5.40;99.90;;;;;;4949749;28;91713;-80
2021/12/16 07:50:49;;;;;;;24.05;14.88;;;5.40;99.90;;;;;;4954820;28;88833;-80
2021/12/16 07:53:15;;;;;;;24.42;15.00;;;5.40;99.90;;;;;;4973707;28;88996;-81
2021/12/16 07:55:42;;;;;;;26.75;15.02;;;5.40;99.90;;;;;;4970901;28;88986;-79
2021/12/16 07:58:08;;;;;;;25.90;15.57;;;5.40;99.90;;;;;;4987086;28;90643;-80
2021/12/16 08:00:35;;;;;;;25.05;14.50;;;5.40;99.90;;;;;;4992918;28;88752;-80
2021/12/16 08:03:04;;;;;;;24.30;13.85;;;5.50;99.90;;;;;;4992521;28;88889;-80
2021/12/16 08:05:36;;;;;;;25.67;15.38;;;5.50;99.90;;;;;;4991486;28;89072;-81
2021/12/16 08:08:03;;;;;;;24.67;13.63;;;5.50;99.90;;;;;;4986447;28;89114;-80
2021/12/16 08:10:29;;;;;;;23.85;14.70;;;5.60;99.90;;;;;;4984918;28;88807;-80
2021/12/16 08:12:55;;;;;;;25.02;14.10;;;5.60;99.90;;;;;;4982921;28;89108;-81
2021/12/16 08:15:22;;;;;;;23.52;15.02;;;5.70;99.90;;;;;;4982377;28;88962;-80
2021/12/16 08:17:48;;;;;;;23.30;14.63;;;5.70;99.90;;;;;;4983139;28;89974;-80
2021/12/16 08:20:18;;;;;;;24.30;14.70;;;5.70;99.90;;;;;;4979453;28;92284;-80
2021/12/16 08:22:50;;;;;;;24.55;14.77;;;5.80;99.90;;;;;;4980792;28;89086;-80
2021/12/16 08:25:19;;;;;;;24.48;14.43;;;5.80;99.90;;;;;;4980395;28;89059;-80
2021/12/16 08:27:45;;;;;;;27.40;14.73;;;5.70;99.90;;;;;;4981845;28;89713;-80
2021/12/16 08:30:14;;;;;;;25.63;15.32;;;5.80;99.90;;;;;;4982357;28;89616;-80
2021/12/16 08:32:40;;;;;;;23.65;14.73;;;5.90;99.90;;;;;;4979682;28;88979;-80
2021/12/16 08:35:07;;;;;;;25.95;15.38;;;5.90;99.90;;;;;;4982184;28;89150;-80
2021/12/16 08:37:33;;;;;;;24.75;15.48;;;5.90;99.90;;;;;;4980325;28;93101;-80
2021/12/16 08:39:59;;;;;;;26.35;14.75;;;6.00;99.90;;;;;;4981700;28;90364;-80
2021/12/16 08:42:25;;;;;;;24.00;14.20;;;6.00;99.90;;;;;;4981446;28;89148;-80
2021/12/16 08:44:51;;;;;;;21.75;14.07;;;6.00;99.90;;;;;;4958555;28;89874;-80
2021/12/16 08:47:19;;;;;;;24.05;14.50;;;6.10;99.90;;;;;;4947413;28;92575;-82
2021/12/16 08:49:45;;;;;;;25.65;14.40;;;6.10;99.90;;;;;;4940922;28;90364;-80
2021/12/16 08:52:14;;;;;;;26.05;14.95;;;6.20;99.90;;;;;;4941523;28;89046;-80
2021/12/16 08:54:40;;;;;;;24.17;14.40;;;6.30;99.90;;;;;;4943539;28;89170;-81
2021/12/16 08:57:06;;;;;;;23.55;14.30;;;6.40;99.90;;;;;;4944265;28;91923;-81
2021/12/16 08:59:33;;;;;;;23.08;13.88;;;6.40;99.90;;;;;;4952980;28;89623;-79
2021/12/16 09:02:46;;;;;;;20.67;13.38;;;6.50;99.90;;;;;;5069754;27;88966;-79
2021/12/16 09:05:12;;;;;;;24.55;14.95;;;6.40;99.90;;;;;;5072264;27;89256;-79
2021/12/16 09:07:38;;;;;;;21.38;13.65;;;6.40;99.90;;;;;;5059419;27;89075;-78
2021/12/16 09:10:07;;;;;;;21.35;13.98;;;6.40;99.90;;;;;;5057647;27;92573;-80
2021/12/16 09:12:49;;;;;;;27.60;14.23;;;6.40;99.90;;;;;;5037657;27;92205;-79
2021/12/16 09:15:15;;;;;;;24.17;13.55;;;6.40;99.90;;;;;;5036359;28;89491;-82
2021/12/16 09:17:41;;;;;;;19.98;12.88;;;6.50;99.90;;;;;;5036650;28;89187;-82
2021/12/16 09:20:08;;;;;;;23.40;13.90;;;6.60;99.90;;;;;;5036751;28;91213;-82
2021/12/16 09:22:35;;;;;;;23.83;14.32;;;6.60;99.90;;;;;;5037055;28;92381;-81
2021/12/16 09:25:01;;;;;;;22.92;13.18;;;6.60;99.90;;;;;;5041465;27;88819;-79
2021/12/16 09:27:27;;;;;;;18.90;12.30;;;6.70;99.90;;;;;;5039976;28;89145;-80
2021/12/16 09:29:53;;;;;;;22.63;13.52;;;6.70;99.90;;;;;;5040199;28;92842;-79
2021/12/16 09:32:18;;;;;;;20.92;13.30;;;6.70;99.90;;;;;;5037687;28;91421;-80
2021/12/16 09:34:46;;;;;;;21.42;13.57;;;6.80;99.90;;;;;;5040711;28;88961;-80
2021/12/16 09:37:12;;;;;;;21.48;12.82;;;6.80;99.90;;;;;;5038775;28;88933;-80
2021/12/16 09:39:41;;;;;;;21.73;13.75;;;6.90;99.90;;;;;;5040596;28;88789;-79
2021/12/16 09:42:09;;;;;;;20.63;13.75;;;7.00;99.90;;;;;;5039376;28;90181;-81
2021/12/16 09:44:36;;;;;;;22.02;14.13;;;7.00;99.90;;;;;;5037730;28;89424;-81
2021/12/16 09:47:05;;;;;;;20.90;13.05;;;7.00;99.90;;;;;;5039481;27;89179;-84
2021/12/16 09:49:31;;;;;;;21.30;13.77;;;7.00;99.90;;;;;;5043833;27;91199;-81
2021/12/16 09:52:02;;;;;;;21.40;13.57;;;7.00;99.90;;;;;;5048987;27;92376;-81
2021/12/16 09:54:31;;;;;;;20.73;12.82;;;7.10;99.90;;;;;;5051183;27;89033;-82
2021/12/16 09:56:58;;;;;;;25.25;14.35;;;7.10;99.90;;;;;;5045281;27;89273;-81
2021/12/16 09:59:26;;;;;;;21.35;13.50;;;7.20;99.90;;;;;;5048144;27;89131;-83
2021/12/16 10:01:56;;;;;;;20.38;13.00;;;7.30;99.90;;;;;;5044340;27;92513;-81
2021/12/16 10:04:27;;;;;;;21.67;13.23;;;7.30;99.90;;;;;;5045040;27;88965;-80
2021/12/16 10:06:54;;;;;;;20.90;13.60;;;7.30;99.90;;;;;;5041087;27;88998;-84
2021/12/16 10:09:20;;;;;;;21.40;13.07;;;7.30;99.90;;;;;;5037066;27;92941;-80
2021/12/16 10:11:48;;;;;;;20.52;13.27;;;7.40;99.90;;;;;;5044339;27;92238;-80
2021/12/16 10:19:27;;;;;;;20.45;12.77;;;7.50;99.90;;;;;;5049230;28;89316;-80
2021/12/16 10:21:55;;;;;;;21.10;13.73;;;7.50;99.90;;;;;;5031327;27;92063;-80
2021/12/16 10:24:25;;;;;;;19.02;12.80;;;7.50;99.90;;;;;;5028004;28;88974;-81
2021/12/16 10:27:13;;;;;;;21.05;12.73;;;7.50;99.90;;;;;;5031651;28;89264;-80
2021/12/16 10:29:46;;;;;;;21.10;12.95;;;7.50;99.90;;;;;;5030013;28;90405;-81
2021/12/16 10:32:44;;;;;;;18.60;12.77;;;7.60;99.90;;;;;;5020871;28;90891;-81
2021/12/16 10:35:19;;;;;;;22.42;12.25;;;7.60;99.90;;;;;;5022300;28;88995;-81
2021/12/16 10:37:52;;;;;;;21.75;12.85;;;7.70;99.90;;;;;;5035905;28;88828;-81
2021/12/16 10:40:40;;;;;;;21.48;12.88;;;7.90;99.90;;;;;;5044309;28;90220;-79
2021/12/16 10:43:15;;;;;;;18.45;12.40;;;8.00;99.90;;;;;;5045296;28;89291;-82
2021/12/16 10:45:44;;;;;;;18.67;12.02;;;8.10;99.90;;;;;;5042541;28;89085;-82
2021/12/16 10:48:32;;;;;;;18.63;11.73;;;8.10;99.90;;;;;;5023838;28;89218;-83
2021/12/16 10:51:04;;;;;;;19.27;12.00;;;8.10;99.90;;;;;;5023066;28;91693;-81
2021/12/16 10:53:49;;;;;;;20.23;11.35;;;8.10;99.90;;;;;;5021523;28;91317;-81
2021/12/16 10:56:17;;;;;;;18.88;12.45;;;8.10;99.90;;;;;;5020409;28;89239;-82
2021/12/16 10:59:05;;;;;;;18.45;11.15;;;8.10;99.90;;;;;;5022343;28;88875;-81
2021/12/16 11:01:40;;;;;;;20.55;12.70;;;8.20;99.90;;;;;;5025040;28;90008;-83
2021/12/16 11:04:11;;;;;;;19.00;12.15;;;8.20;99.90;;;;;;5022762;28;92498;-78
2021/12/16 11:06:45;;;;;;;17.88;12.43;;;8.20;99.90;;;;;;5018846;28;89087;-78
2021/12/16 11:09:25;;;;;;;18.23;11.75;;;8.30;99.90;;;;;;5019629;28;89589;-78
2021/12/16 11:12:13;;;;;;;17.30;11.30;;;8.30;99.90;;;;;;5019827;28;92700;-78
2021/12/16 11:14:42;;;;;;;18.33;11.98;;;8.10;99.90;;;;;;5012157;22;90736;-77
2021/12/16 11:17:11;;;;;;;16.48;11.80;;;8.10;99.90;;;;;;4960201;28;88873;-76
2021/12/16 11:20:10;;;;;;;18.65;11.40;;;8.10;99.90;;;;;;4960068;28;88806;-78
2021/12/16 11:22:38;;;;;;;17.42;11.68;;;8.10;99.90;;;;;;4959865;28;89112;-78
2021/12/16 11:25:16;;;;;;;21.08;12.60;;;8.10;99.90;;;;;;4969432;28;89348;-77
2021/12/16 11:27:44;;;;;;;19.02;12.30;;;8.10;99.90;;;;;;4988455;28;89379;-78
2021/12/16 11:30:31;;;;;;;17.10;11.60;;;8.20;99.90;;;;;;4999145;28;89058;-77
2021/12/16 11:33:10;;;;;;;18.17;11.75;;;8.30;99.90;;;;;;4999407;28;88908;-77
2021/12/16 11:35:45;;;;;;;16.75;11.40;;;8.40;99.90;;;;;;4989524;28;89601;-77
2021/12/16 11:38:18;;;;;;;16.48;11.05;;;8.30;99.90;;;;;;4991581;28;88876;-80
2021/12/16 11:40:59;;;;;;;16.52;11.55;;;8.20;99.90;;;;;;4979737;28;89340;-79
2021/12/16 11:43:41;;;;;;;16.60;11.43;;;8.30;99.90;;;;;;4995308;28;90966;-79
2021/12/16 11:46:20;;;;;;;18.15;11.15;;;8.40;99.90;;;;;;4982471;28;89257;-78
2021/12/16 11:48:47;;;;;;;17.48;11.82;;;8.50;99.90;;;;;;4981277;28;89064;-77
2021/12/16 11:51:28;;;;;;;15.93;10.93;;;8.50;99.90;;;;;;4979336;28;89148;-79
2021/12/16 11:54:01;;;;;;;17.80;11.32;;;8.40;99.90;;;;;;4981715;28;89751;-77
2021/12/16 11:56:58;;;;;;;14.90;10.07;;;8.60;99.90;;;;;;4978217;28;89270;-77
2021/12/16 11:59:35;;;;;;;18.50;11.05;;;8.70;99.90;;;;;;4975537;28;89058;-78
2021/12/16 12:02:02;;;;;;;15.57;9.50;;;8.70;99.90;;;;;;4974264;28;88992;-77
2021/12/16 12:04:33;;;;;;;15.98;10.10;;;8.80;99.90;;;;;;4978306;28;91724;-79
2021/12/16 12:06:59;;;;;;;17.08;10.98;;;8.70;99.90;;;;;;4964156;28;91323;-79
2021/12/16 12:09:38;;;;;;;17.08;10.95;;;8.70;99.90;;;;;;4970177;28;88950;-80
2021/12/16 12:12:04;;;;;;;16.73;11.30;;;8.80;99.90;;;;;;4964482;28;88826;-81
2021/12/16 12:14:34;;;;;;;15.38;10.43;;;8.80;99.90;;;;;;5001303;28;90515;-81
2021/12/16 12:17:13;;;;;;;16.50;10.95;;;8.80;99.90;;;;;;4997820;28;88880;-79
2021/12/16 12:19:50;;;;;;;16.40;10.93;;;9.00;99.90;;;;;;4977295;28;88945;-79
2021/12/16 12:22:20;;;;;;;17.73;10.38;;;9.00;99.90;;;;;;4976839;28;89088;-80
2021/12/16 12:24:47;;;;;;;19.30;11.00;;;9.00;99.90;;;;;;4983192;28;90860;-80
2021/12/16 12:27:19;;;;;;;17.25;11.10;;;9.10;99.90;;;;;;4995205;28;91175;-79
2021/12/16 12:29:57;;;;;;;16.33;10.95;;;9.10;99.90;;;;;;4991832;28;89047;-79
2021/12/16 12:32:27;;;;;;;15.40;10.52;;;9.00;99.90;;;;;;4977319;28;89301;-79
2021/12/16 12:35:00;;;;;;;17.02;10.60;;;9.00;99.90;;;;;;4978463;28;89247;-78
2021/12/16 12:37:28;;;;;;;14.43;10.10;;;9.00;99.90;;;;;;4963192;28;89222;-79
2021/12/16 12:40:14;;;;;;;16.75;10.65;;;9.10;99.90;;;;;;4978754;28;89400;-79
2021/12/16 12:42:40;;;;;;;15.18;10.77;;;9.10;99.90;;;;;;4979330;28;89119;-79
2021/12/16 12:45:10;;;;;;;18.23;11.18;;;9.00;99.90;;;;;;4976769;28;91516;-77
2021/12/16 12:47:39;;;;;;;16.52;10.40;;;9.00;99.90;;;;;;4979214;28;89276;-78
2021/12/16 12:50:33;;;;;;;15.88;10.90;;;8.90;99.90;;;;;;4977370;28;89303;-79
2021/12/16 12:53:20;;;;;;;18.08;10.30;;;8.90;99.90;;;;;;4976131;28;89198;-78
2021/12/16 12:55:49;;;;;;;23.83;10.88;;;9.10;99.90;;;;;;4977535;28;90148;-80
2021/12/16 12:58:20;;;;;;;16.17;10.73;;;9.10;99.90;;;;;;4968576;28;89353;-78
2021/12/16 13:00:54;;;;;;;15.15;9.98;;;9.10;99.90;;;;;;4978714;28;88944;-79
2021/12/16 13:03:43;;;;;;;15.50;10.40;;;9.20;99.90;;;;;;4979528;28;89015;-80
2021/12/16 13:06:11;;;;;;;13.85;10.07;;;9.20;99.90;;;;;;4978597;28;89410;-78
2021/12/16 13:08:46;;;;;;;13.50;9.48;;;9.20;99.90;;;;;;4976417;28;90973;-80
2021/12/16 13:11:19;;;;;;;19.33;11.23;;;9.10;99.90;;;;;;4972516;28;89028;-79
2021/12/16 13:14:40;;;;;;;15.10;10.20;;;9.00;99.90;;;;;;4966629;28;88895;-78
2021/12/16 13:17:20;;;;;;;15.30;10.20;;;9.10;99.90;;;;;;4970516;28;90133;-78
2021/12/16 13:26:10;;;;;;;18.27;10.88;;;9.10;99.90;;;;;;4977668;28;88782;-78
2021/12/16 13:31:26;;;;;;;19.92;10.80;;;9.30;99.90;;;;;;4975944;28;89118;-78
2021/12/16 13:33:58;;;;;;;17.52;11.32;;;9.30;99.90;;;;;;4975837;28;89711;-77
2021/12/16 13:36:47;;;;;;;18.50;11.75;;;9.30;99.90;;;;;;4957898;28;89132;-80
2021/12/16 13:39:22;;;;;;;16.90;11.32;;;9.30;99.90;;;;;;4961558;28;89042;-79
2021/12/16 13:41:55;;;;;;;18.38;11.07;;;9.30;99.90;;;;;;4978394;28;89954;-79
2021/12/16 13:44:40;;;;;;;17.45;11.75;;;9.20;99.90;;;;;;4976997;28;91031;-79
2021/12/16 13:47:27;;;;;;;19.75;12.13;;;9.00;99.90;;;;;;4976965;28;89230;-80
2021/12/16 14:01:27;;;;;;;22.98;13.15;;;8.70;99.90;;;;;;4978071;28;88763;-79
2021/12/16 14:06:52;;;;;;;20.00;13.48;;;8.70;99.90;;;;;;4980912;28;89066;-79
2021/12/16 14:09:25;;;;;;;24.70;13.70;;;8.80;99.90;;;;;;4982239;28;88896;-79
2021/12/16 14:23:16;;;;;;;18.98;12.70;;;8.70;99.90;;;;;;4982474;28;89018;-81
2021/12/16 14:31:40;;;;;;;17.85;12.05;;;8.60;99.90;;;;;;4981834;28;88943;-82
2021/12/16 14:37:10;;;;;;;21.70;13.43;;;8.30;99.90;;;;;;4980215;28;89303;-81
2021/12/16 14:43:03;;;;;;;22.63;14.18;;;8.10;99.90;;;;;;4963029;28;88831;-81
2021/12/16 14:47:54;;;;;;;21.48;14.48;;;8.00;99.90;;;;;;4961650;28;89479;-81
2021/12/16 14:50:26;;;;;;;18.75;13.10;;;8.00;99.90;;;;;;4982526;28;89022;-82
2021/12/16 14:52:52;;;;;;;20.80;12.80;;;8.00;99.90;;;;;;4982103;28;89233;-81
2021/12/16 14:55:19;;;;;;;26.67;12.88;;;8.00;99.90;;;;;;4982103;28;89048;-82
2021/12/16 14:57:51;;;;;;;19.58;12.05;;;8.10;99.90;;;;;;4983600;28;91957;-82
2021/12/16 15:00:31;;;;;;;17.77;12.27;;;8.00;99.90;;;;;;4980293;28;89032;-82
2021/12/16 15:03:09;;;;;;;18.23;11.43;;;8.00;99.90;;;;;;4983559;28;89444;-82
2021/12/16 15:05:42;;;;;;;17.00;11.35;;;8.00;99.90;;;;;;4981387;28;91198;-82
2021/12/16 15:08:14;;;;;;;30.23;12.85;;;8.00;99.90;;;;;;4985864;28;89157;-83
2021/12/16 15:10:42;;;;;;;20.35;12.82;;;8.00;99.90;;;;;;4981085;28;89341;-83
2021/12/16 15:13:15;;;;;;;23.33;13.15;;;7.90;99.90;;;;;;4982254;28;88935;-83
2021/12/16 15:16:01;;;;;;;20.88;12.18;;;7.90;99.90;;;;;;5016708;28;91566;-82
2021/12/16 15:35:51;;;;;;;23.05;13.80;;;7.40;99.90;;;;;;4981494;28;88998;-82
2021/12/16 15:43:12;;;;;;;21.73;12.60;;;7.30;99.90;;;;;;4984031;28;88880;-80
2021/12/16 15:45:40;;;;;;;21.55;13.15;;;7.30;99.90;;;;;;4985210;28;89255;-81
2021/12/16 15:48:16;;;;;;;22.17;12.93;;;7.30;99.90;;;;;;4985083;28;91420;-80
2021/12/16 15:50:49;;;;;;;22.15;13.27;;;7.30;99.90;;;;;;4987369;28;89801;-81
2021/12/16 15:53:23;;;;;;;20.98;12.65;;;7.30;99.90;;;;;;4988050;28;89087;-80
2021/12/16 15:56:06;;;;;;;19.95;11.63;;;7.20;99.90;;;;;;4985770;28;89516;-81
2021/12/16 15:58:49;;;;;;;20.15;12.32;;;7.20;99.90;;;;;;4986218;28;92833;-81
2021/12/16 16:01:46;;;;;;;26.20;13.32;;;7.20;99.90;;;;;;4985943;28;91164;-81
2021/12/16 16:04:16;;;;;;;25.75;12.77;;;7.10;99.90;;;;;;4987372;28;88450;-81
2021/12/16 16:06:45;;;;;;;23.63;13.38;;;7.10;99.90;;;;;;4987568;28;88789;-81
2021/12/16 16:09:11;;;;;;;24.02;13.20;;;7.00;99.90;;;;;;4988054;28;91206;-81
2021/12/16 16:11:41;;;;;;;17.73;11.55;;;7.00;99.90;;;;;;4987106;28;91213;-81
2021/12/16 16:14:07;;;;;;;20.17;12.98;;;6.90;99.90;;;;;;4987431;28;88958;-82
2021/12/16 16:16:43;;;;;;;23.23;13.02;;;6.80;99.90;;;;;;4987109;28;88941;-82
2021/12/16 16:19:10;;;;;;;20.15;12.68;;;6.70;99.90;;;;;;4988197;28;89051;-81
2021/12/16 16:21:39;;;;;;;20.90;12.55;;;6.70;99.90;;;;;;4988041;28;88958;-80
2021/12/16 16:24:17;;;;;;;24.80;14.75;;;6.60;99.90;;;;;;4982045;28;88864;-79
2021/12/16 16:26:43;;;;;;;26.27;15.85;;;6.50;99.90;;;;;;4980428;28;89112;-80
2021/12/16 16:29:12;;;;;;;28.50;15.70;;;6.40;99.90;;;;;;4978509;28;92918;-80
2021/12/16 16:31:40;;;;;;;23.50;13.95;;;6.40;99.90;;;;;;4979959;28;89154;-81
2021/12/16 16:34:14;;;;;;;24.00;13.07;;;6.30;99.90;;;;;;4979776;28;88916;-80
2021/12/16 16:36:46;;;;;;;27.40;14.40;;;6.20;99.90;;;;;;4979713;28;89256;-80
2021/12/16 16:39:17;;;;;;;23.52;14.00;;;6.10;99.90;;;;;;4979499;28;90339;-80
2021/12/16 16:41:49;;;;;;;25.15;14.60;;;5.90;99.90;;;;;;4979131;28;88859;-80
2021/12/16 16:44:17;;;;;;;31.38;16.50;;;5.80;99.90;;;;;;4978896;28;89142;-81
2021/12/16 16:46:53;;;;;;;25.13;15.82;;;5.70;99.90;;;;;;4979586;28;89034;-80
2021/12/16 16:49:47;;;;;;;30.63;15.93;;;5.60;99.90;;;;;;4977617;28;92929;-80
2021/12/16 16:52:16;;;;;;;26.95;14.73;;;5.50;99.90;;;;;;4979481;28;88962;-80
2021/12/16 16:55:05;;;;;;;30.25;15.93;;;5.40;99.90;;;;;;4977262;28;90451;-80
2021/12/16 16:57:34;;;;;;;28.63;14.18;;;5.30;99.90;;;;;;4977176;28;89039;-80
2021/12/16 17:00:20;;;;;;;26.65;14.82;;;5.20;99.90;;;;;;4979499;28;91739;-80
2021/12/16 17:02:53;;;;;;;24.88;14.23;;;5.10;99.90;;;;;;4977925;28;92581;-78
2021/12/16 17:05:40;;;;;;;23.10;13.18;;;5.00;99.90;;;;;;4977930;28;88895;-78
2021/12/16 17:08:10;;;;;;;30.85;15.43;;;4.90;99.90;;;;;;4978143;28;89042;-79
2021/12/16 17:10:48;;;;;;;25.73;14.95;;;4.80;99.90;;;;;;4977541;28;91479;-78
2021/12/16 17:13:21;;;;;;;24.70;14.70;;;4.70;99.90;;;;;;4978531;28;88818;-79
2021/12/16 17:18:31;;;;;;;31.27;15.27;;;4.60;99.90;;;;;;4979968;28;88997;-78
2021/12/16 17:21:01;;;;;;;27.83;14.75;;;4.50;99.90;;;;;;4979061;28;92726;-79
2021/12/16 17:23:31;;;;;;;28.60;16.10;;;4.50;99.90;;;;;;4981766;28;92322;-79
2021/12/16 17:25:57;;;;;;;35.70;19.33;;;4.40;99.90;;;;;;4982925;28;89017;-79
2021/12/16 17:28:22;;;;;;;35.95;19.77;;;4.30;99.90;;;;;;4984737;28;89281;-81
2021/12/16 17:30:49;;;;;;;42.40;22.65;;;4.20;99.90;;;;;;4983177;28;91387;-79
2021/12/16 17:33:28;;;;;;;47.50;26.75;;;4.10;99.90;;;;;;4985079;28;89944;-80
2021/12/16 17:35:54;;;;;;;45.08;24.55;;;4.00;99.90;;;;;;4983636;28;88864;-78
2021/12/16 17:38:24;;;;;;;43.13;22.77;;;4.00;99.90;;;;;;4983277;28;89233;-79
2021/12/16 17:41:04;;;;;;;38.53;22.90;;;3.80;99.90;;;;;;4982345;28;93969;-78
2021/12/16 17:43:43;;;;;;;38.60;24.55;;;3.70;99.90;;;;;;4983863;28;91258;-78
2021/12/16 17:46:11;;;;;;;35.00;19.73;;;3.70;99.90;;;;;;4983040;28;88960;-77
2021/12/16 17:48:43;;;;;;;34.65;18.52;;;3.70;99.90;;;;;;4982970;28;89151;-77
2021/12/16 17:51:40;;;;;;;33.50;19.23;;;3.60;99.90;;;;;;4983803;28;90159;-79
2021/12/16 17:54:08;;;;;;;42.75;21.58;;;3.40;99.90;;;;;;4979504;28;88866;-77
2021/12/16 17:56:34;;;;;;;47.92;24.50;;;3.40;99.90;;;;;;4982890;28;89419;-80
2021/12/16 17:59:05;;;;;;;41.70;24.73;;;3.40;99.90;;;;;;4985838;28;89142;-78
2021/12/16 18:01:39;;;;;;;38.45;23.08;;;3.30;99.90;;;;;;4982667;28;90168;-80
2021/12/16 18:04:07;;;;;;;38.03;21.13;;;3.30;99.90;;;;;;4983140;28;92458;-80
2021/12/16 18:06:45;;;;;;;56.78;30.75;;;3.30;99.90;;;;;;4984091;28;88842;-81
2021/12/16 18:09:30;;;;;;;60.50;34.78;;;3.20;99.90;;;;;;4985755;28;88928;-80
2021/12/16 18:12:21;;;;;;;48.10;29.60;;;3.20;99.90;;;;;;4987684;28;92944;-80
2021/12/16 18:14:52;;;;;;;53.85;33.50;;;3.10;99.90;;;;;;4983661;28;89652;-79
2021/12/16 18:17:33;;;;;;;50.13;29.45;;;3.10;99.90;;;;;;4983444;28;89868;-80
2021/12/16 18:20:09;;;;;;;50.80;27.92;;;3.00;99.90;;;;;;4999395;28;89162;-77
2021/12/16 18:22:38;;;;;;;39.67;23.77;;;3.00;99.90;;;;;;4984345;28;91858;-76
2021/12/16 18:25:12;;;;;;;50.72;26.40;;;2.90;99.90;;;;;;4992344;28;89067;-76
2021/12/16 18:27:48;;;;;;;42.63;22.65;;;2.90;99.90;;;;;;5006957;28;88966;-76
2021/12/16 18:30:41;;;;;;;44.70;23.85;;;2.90;99.90;;;;;;5007027;28;88556;-75
2021/12/16 18:33:32;;;;;;;41.25;22.15;;;2.90;99.90;;;;;;4992401;28;89514;-76
2021/12/16 18:36:01;;;;;;;38.80;21.83;;;2.80;99.90;;;;;;4995161;28;89239;-76
2021/12/16 18:38:51;;;;;;;41.30;21.77;;;2.80;99.90;;;;;;4983610;28;89091;-75
2021/12/16 18:41:21;;;;;;;38.55;20.30;;;2.70;99.90;;;;;;4991313;28;88884;-76
2021/12/16 18:43:48;;;;;;;37.58;19.48;;;2.60;99.90;;;;;;4993109;28;88928;-76
2021/12/16 18:46:15;;;;;;;33.78;18.98;;;2.60;99.90;;;;;;4998974;28;89366;-76
2021/12/16 18:51:23;;;;;;;34.50;19.13;;;2.50;99.90;;;;;;4989982;28;88973;-76
2021/12/16 18:56:42;;;;;;;38.92;19.65;;;2.60;99.90;;;;;;5000033;28;89032;-78
2021/12/16 18:59:09;;;;;;;36.85;19.08;;;2.50;99.90;;;;;;4998443;28;89033;-77
2021/12/16 19:01:45;;;;;;;32.17;17.70;;;2.40;99.90;;;;;;5000258;28;88975;-76
2021/12/16 19:04:11;;;;;;;38.75;19.42;;;2.40;99.90;;;;;;4999998;28;88886;-77
2021/12/16 19:06:40;;;;;;;44.03;21.33;;;2.30;99.90;;;;;;5000188;28;88936;-77
2021/12/16 19:09:10;;;;;;;41.33;20.63;;;2.30;99.90;;;;;;5000419;28;89047;-77
2021/12/16 19:11:45;;;;;;;44.40;22.02;;;2.20;99.90;;;;;;4999823;28;88793;-76
2021/12/16 19:14:13;;;;;;;40.78;21.15;;;2.20;99.90;;;;;;4998329;28;91589;-76
2021/12/16 19:16:40;;;;;;;43.83;20.67;;;2.10;99.90;;;;;;5000817;28;89056;-75
2021/12/16 19:19:06;;;;;;;39.00;20.50;;;2.10;99.90;;;;;;5000735;28;89035;-77
2021/12/16 19:21:33;;;;;;;35.45;17.90;;;2.10;99.90;;;;;;5000678;28;89054;-75
2021/12/16 19:23:59;;;;;;;36.63;19.05;;;2.10;99.90;;;;;;5000228;28;89700;-76
2021/12/16 19:26:25;;;;;;;34.35;18.48;;;2.10;99.90;;;;;;4999199;28;91915;-75
2021/12/16 19:28:50;;;;;;;34.17;18.67;;;2.00;99.90;;;;;;4998997;28;89063;-76
2021/12/16 19:31:21;;;;;;;38.85;19.55;;;2.00;99.90;;;;;;5000493;28;88841;-76
2021/12/16 19:33:49;;;;;;;40.80;21.35;;;1.90;99.90;;;;;;4995081;28;89076;-76
2021/12/16 19:36:15;;;;;;;43.03;22.27;;;1.90;99.90;;;;;;4980643;28;88913;-77
2021/12/16 19:38:42;;;;;;;41.75;22.88;;;1.90;99.90;;;;;;4978936;28;89000;-77
2021/12/16 19:41:13;;;;;;;47.72;23.10;;;1.80;99.90;;;;;;4981453;28;88950;-76
2021/12/16 19:43:39;;;;;;;44.88;23.40;;;1.80;99.90;;;;;;5000106;28;93523;-77
2021/12/16 19:46:06;;;;;;;43.75;21.52;;;1.80;99.90;;;;;;4990790;28;88870;-76